Startpagina
METAR-TAF:

METAR-TAF

Vliegvelden :

Luchthaven Poelkovo

Sint-Petersburg, Rusland

breedte: 59-58N, lengte: 030-18E, hoogte: 4 m

Actueel weer

Dit bericht is 30 minuten geleden gemaakt, om 23:00 UTC
Wind 2 kt uit variabele richting
Temperatuur 13°C
Vochtigheid 72%
Druk 1024 hPa
Zicht 10 km of meer
geen wolken onder 1500 m en geen cumulonimbus

METAR: ULLI 262300Z VRB01MPS CAVOK 13/08 Q1024 R88/090060 NOSIG

Tijdstip: 02:30 (23:30 UTC)

Verwachting

Dit bericht is 3 uur en het 30 minuten geleden gemaakt, om 20:00 UTC
Verwachting geldig van 26 om 21 UTC tot 27 om 21 UTC
Wind 6 kt uit het westnoordwesten
Zicht 10 km of meer
Verspreide wolken op 2000 ft
Tijdelijke
van 26 om 21 UTC tot 27 om 06 UTC
Wind 6 kt uit het westzuidwesten
Gebroken wolken op 3000 ft
Wijzigt naar
van 27 om 06 UTC tot 27 om 08 UTC
Wind 6 kt uit het noorden met uitschieters tot 16 kt

TAF: ULLI 262000Z 2621/2721 30003MPS 9999 SCT020 TEMPO 2621/2706 25003MPS BKN030 BECMG 2706/2708 36003G08MPS

Waarnemingen en weersverwachtingen van meer dan 4000 vliegvelden (METAR en TAF).

De beschikbare stations zijn de gele en rode punten op de kaart.

Ga met uw muis naar het station om de naam te zien.

Klik dan om waarnemingen en weersverwachtingen te zien.

kaart wijzigen: klik op de groene knoppen met een zwart kruis om in te zoomen, op de groene knop met een streepje om uit te zoomen of op de groene pijlen voor aangrenzende kaarten.


METAR-TAF: